createdAt,value
2018-12-27T00:00:54.976Z,52.77
2018-12-27T00:05:00.662Z,53.02
2018-12-27T00:09:07.967Z,53.20
2018-12-27T00:13:13.662Z,53.41
2018-12-27T00:17:19.457Z,52.73
2018-12-27T00:21:25.153Z,53.02
2018-12-27T00:25:30.845Z,52.98
2018-12-27T00:29:36.547Z,52.06
2018-12-27T00:33:42.424Z,52.27
2018-12-27T00:37:48.329Z,52.05
2018-12-27T00:41:54.245Z,51.92
2018-12-27T00:46:01.803Z,52.31
2018-12-27T00:50:07.674Z,51.62
2018-12-27T00:54:13.578Z,51.21
2018-12-27T00:58:29.629Z,51.98
2018-12-27T01:02:47.488Z,51.03
2018-12-27T01:07:30.313Z,52.03
2018-12-27T01:16:41.454Z,52.01
2018-12-27T01:20:59.084Z,52.56
2018-12-27T01:35:12.449Z,52.12
2018-12-27T02:19:23.917Z,52.60
2018-12-27T02:39:44.737Z,52.44
2018-12-27T03:19:12.659Z,52.30
2018-12-27T03:34:36.768Z,52.41
2018-12-27T03:58:35.900Z,52.02
2018-12-27T04:17:45.679Z,52.18
2018-12-27T04:22:10.719Z,52.18
2018-12-27T04:31:04.332Z,51.86
2018-12-27T04:35:16.801Z,52.20
2018-12-27T04:39:22.632Z,51.95
2018-12-27T04:43:29.151Z,52.31
2018-12-27T04:47:35.090Z,52.15
2018-12-27T04:51:40.845Z,52.19
2018-12-27T04:55:46.591Z,52.36
2018-12-27T04:59:53.729Z,52.29
2018-12-27T05:03:59.589Z,52.14
2018-12-27T05:08:10.781Z,52.42
2018-12-27T05:12:16.508Z,52.45
2018-12-27T05:16:22.303Z,52.48
2018-12-27T05:20:28.140Z,51.95
2018-12-27T05:24:33.930Z,52.45
2018-12-27T05:28:39.684Z,52.32
2018-12-27T05:32:45.447Z,52.54
2018-12-27T05:36:51.298Z,52.58
2018-12-27T05:40:57.080Z,52.46
2018-12-27T05:45:03.147Z,52.48
2018-12-27T05:49:14.773Z,52.49
2018-12-27T05:53:20.504Z,52.51
2018-12-27T05:57:26.507Z,52.42
2018-12-27T06:01:32.680Z,52.03
2018-12-27T06:05:38.542Z,51.69
2018-12-27T06:09:45.985Z,51.30
2018-12-27T06:13:53.713Z,52.12
2018-12-27T06:17:59.415Z,51.87
2018-12-27T06:22:11.441Z,51.98
2018-12-27T06:26:17.157Z,51.24
2018-12-27T06:30:22.960Z,51.33
2018-12-27T06:34:28.793Z,51.07
2018-12-27T06:38:34.669Z,51.63
2018-12-27T06:42:40.390Z,51.37
2018-12-27T06:46:46.219Z,50.93
2018-12-27T06:50:52.085Z,51.16
2018-12-27T06:54:57.826Z,50.52
2018-12-27T06:59:03.817Z,50.71
2018-12-27T07:03:13.778Z,50.14
2018-12-27T07:07:19.508Z,51.07
2018-12-27T07:11:25.247Z,51.05
2018-12-27T07:15:31.137Z,50.83
2018-12-27T07:19:37.020Z,51.12
2018-12-27T07:23:43.052Z,51.84
2018-12-27T07:27:50.437Z,51.45
2018-12-27T07:31:56.243Z,51.39
2018-12-27T07:36:02.086Z,51.18
2018-12-27T07:40:14.304Z,51.28
2018-12-27T07:44:20.074Z,51.19
2018-12-27T07:48:27.992Z,51.86
2018-12-27T07:52:40.541Z,51.67
2018-12-27T07:56:51.687Z,51.82
2018-12-27T08:00:57.476Z,51.75
2018-12-27T08:09:20.819Z,51.68
2018-12-27T08:13:26.562Z,51.38
2018-12-27T08:17:35.341Z,51.16
2018-12-27T08:21:41.103Z,50.53
2018-12-27T08:25:47.356Z,49.82
2018-12-27T08:29:53.178Z,49.62
2018-12-27T08:33:58.991Z,50.59
2018-12-27T08:38:04.950Z,49.69
2018-12-27T08:42:16.615Z,46.22
2018-12-27T08:46:22.438Z,44.19
2018-12-27T08:50:28.258Z,44.98
2018-12-27T08:54:34.253Z,43.59
2018-12-27T08:58:40.032Z,45.55
2018-12-27T09:02:45.710Z,44.52
2018-12-27T09:06:51.580Z,45.50
2018-12-27T09:10:57.708Z,45.71
2018-12-27T09:15:13.429Z,46.23
2018-12-27T09:19:19.254Z,46.48
2018-12-27T09:23:25.084Z,46.82
2018-12-27T09:27:30.993Z,46.82
2018-12-27T09:31:36.998Z,46.91
2018-12-27T09:35:42.818Z,46.41
2018-12-27T09:39:51.520Z,46.16
2018-12-27T10:04:53.652Z,45.64
2018-12-27T10:08:59.400Z,45.74
2018-12-27T10:13:05.264Z,45.27
2018-12-27T10:17:16.865Z,45.06
2018-12-27T10:21:22.596Z,44.70
2018-12-27T10:25:28.269Z,44.34
2018-12-27T10:29:33.991Z,44.60
2018-12-27T10:33:39.827Z,44.45
2018-12-27T10:37:45.570Z,44.42
2018-12-27T10:41:51.284Z,44.65
2018-12-27T10:45:57.069Z,44.40
2018-12-27T10:50:04.767Z,44.58
2018-12-27T10:54:15.166Z,44.41
2018-12-27T10:58:20.888Z,44.34
2018-12-27T11:02:26.623Z,44.42
2018-12-27T11:06:32.350Z,44.58
2018-12-27T11:10:38.176Z,44.21
2018-12-27T11:15:03.288Z,43.77
2018-12-27T11:19:13.466Z,44.46
2018-12-27T11:23:19.315Z,44.02
2018-12-27T11:27:25.074Z,41.69
2018-12-27T11:31:30.835Z,40.71
2018-12-27T11:35:36.545Z,40.32
2018-12-27T11:39:42.284Z,41.04
2018-12-27T11:43:48.057Z,42.32
2018-12-27T11:47:53.782Z,39.98
2018-12-27T11:51:59.503Z,36.45
2018-12-27T11:56:05.333Z,35.78
2018-12-27T12:00:16.582Z,35.99
2018-12-27T12:04:22.327Z,37.67
2018-12-27T12:08:28.086Z,38.79
2018-12-27T12:12:33.812Z,39.79
2018-12-27T12:16:39.577Z,40.02
2018-12-27T12:20:45.307Z,39.37
2018-12-27T12:24:51.021Z,36.91
2018-12-27T12:28:56.777Z,34.52
2018-12-27T12:33:02.580Z,31.89
2018-12-27T12:37:14.212Z,33.69
2018-12-27T12:41:19.502Z,36.15
2018-12-27T12:45:25.232Z,38.96
2018-12-27T12:49:30.922Z,39.57
2018-12-27T12:53:36.655Z,40.48
2018-12-27T12:57:42.427Z,40.69
2018-12-27T13:01:48.107Z,41.56
2018-12-27T13:05:53.837Z,45.99
2018-12-27T13:09:59.609Z,44.21
2018-12-27T13:14:05.367Z,44.42
2018-12-27T13:18:17.883Z,45.86
2018-12-27T13:22:23.792Z,42.85
2018-12-27T13:26:29.498Z,42.77
2018-12-27T13:30:35.216Z,42.70
2018-12-27T13:34:40.979Z,42.68
2018-12-27T13:38:46.723Z,42.89
2018-12-27T13:42:52.476Z,43.03
2018-12-27T13:46:58.330Z,43.12
2018-12-27T13:51:04.120Z,43.27
2018-12-27T13:55:17.207Z,43.33
2018-12-27T13:59:22.886Z,44.04
2018-12-27T14:03:28.616Z,43.83
2018-12-27T14:07:34.361Z,43.47
2018-12-27T14:11:40.094Z,43.54
2018-12-27T14:15:45.814Z,43.84
2018-12-27T14:19:51.544Z,43.73
2018-12-27T14:23:57.351Z,43.80
2018-12-27T14:28:03.055Z,44.08
2018-12-27T14:32:14.652Z,44.17
2018-12-27T14:36:20.482Z,44.14
2018-12-27T14:40:26.183Z,44.20
2018-12-27T14:44:31.937Z,44.32
2018-12-27T14:48:54.645Z,44.37
2018-12-27T14:53:00.534Z,44.81
2018-12-27T15:12:00.375Z,48.01
2018-12-27T15:16:21.744Z,50.65
2018-12-27T15:20:46.822Z,50.18
2018-12-27T15:25:11.507Z,50.11
2018-12-27T15:29:29.374Z,50.34
2018-12-27T15:33:54.534Z,50.08
2018-12-27T15:38:12.478Z,48.90
2018-12-27T15:42:55.788Z,49.69
2018-12-27T15:47:13.502Z,48.03
2018-12-27T15:52:34.593Z,49.29
2018-12-27T15:56:52.250Z,52.07
2018-12-27T16:06:16.360Z,53.79
2018-12-27T16:10:53.097Z,54.10
2018-12-27T16:15:18.147Z,53.42
2018-12-27T16:19:55.021Z,54.34
2018-12-27T16:24:20.066Z,54.47
2018-12-27T16:28:50.244Z,53.18
2018-12-27T16:33:08.476Z,51.77
2018-12-27T16:48:05.511Z,53.94
2018-12-27T16:52:48.335Z,53.26
2018-12-27T17:02:12.714Z,55.05
2018-12-27T17:06:57.079Z,55.40
2018-12-27T17:22:06.210Z,51.76
2018-12-27T17:31:58.653Z,51.09
2018-12-27T17:36:16.269Z,51.53
2018-12-27T17:40:59.029Z,51.40
2018-12-27T17:45:16.628Z,56.05
2018-12-27T17:50:24.280Z,56.46
2018-12-27T17:54:49.352Z,59.49
2018-12-27T17:59:05.395Z,56.47
2018-12-27T18:03:49.790Z,54.23
2018-12-27T18:08:08.036Z,54.94
2018-12-27T18:12:52.469Z,53.17
2018-12-27T18:16:58.184Z,54.75
2018-12-27T18:21:04.011Z,54.95
2018-12-27T18:25:09.740Z,53.09
2018-12-27T18:29:15.446Z,51.30
2018-12-27T18:33:21.200Z,54.63
2018-12-27T18:37:50.780Z,54.04
2018-12-27T18:41:56.496Z,51.56
2018-12-27T18:46:02.182Z,52.62
2018-12-27T18:50:07.940Z,54.46
2018-12-27T18:54:13.618Z,51.75
2018-12-27T18:58:49.354Z,50.70
2018-12-27T19:02:55.087Z,50.68
2018-12-27T19:07:00.854Z,50.61
2018-12-27T19:12:00.227Z,50.73
2018-12-27T19:16:05.960Z,50.61
2018-12-27T19:20:11.931Z,50.51
2018-12-27T19:24:17.654Z,50.48
2018-12-27T19:28:50.486Z,50.39
2018-12-27T19:32:56.206Z,50.61
2018-12-27T19:37:01.908Z,51.78
2018-12-27T19:41:07.612Z,51.34
2018-12-27T19:45:13.391Z,50.92
2018-12-27T19:49:19.114Z,50.40
2018-12-27T19:53:24.812Z,50.58
2018-12-27T19:57:30.526Z,50.33
2018-12-27T20:01:48.271Z,50.32
2018-12-27T20:24:46.721Z,50.15
2018-12-27T20:29:49.097Z,50.03
2018-12-27T20:33:54.802Z,50.09
2018-12-27T20:38:48.773Z,50.07
2018-12-27T20:42:54.505Z,49.69
2018-12-27T20:51:49.848Z,49.74
2018-12-27T20:55:55.628Z,49.88
2018-12-27T21:00:01.330Z,50.46
2018-12-27T21:04:07.137Z,50.17
2018-12-27T21:08:49.153Z,50.12
2018-12-27T21:12:54.834Z,49.72
2018-12-27T21:17:00.559Z,49.85
2018-12-27T21:21:06.255Z,49.87
2018-12-27T21:25:12.054Z,50.03
2018-12-27T21:29:17.716Z,50.46
2018-12-27T21:33:23.405Z,50.12
2018-12-27T21:38:00.531Z,50.72
2018-12-27T21:43:04.137Z,50.38
2018-12-27T21:47:21.742Z,51.10
2018-12-27T21:51:46.784Z,51.64
2018-12-27T21:56:04.353Z,51.71
2018-12-27T22:00:29.396Z,51.41
2018-12-27T22:04:45.352Z,51.44
2018-12-27T22:09:10.398Z,50.75
2018-12-27T22:13:28.231Z,51.37
2018-12-27T22:17:53.285Z,51.56
2018-12-27T22:22:10.985Z,51.76
2018-12-27T22:26:37.618Z,51.96
2018-12-27T22:31:04.514Z,51.92
2018-12-27T22:35:29.627Z,50.98
2018-12-27T22:39:50.237Z,51.33
2018-12-27T22:44:27.324Z,51.57
2018-12-27T22:48:52.380Z,51.54
2018-12-27T22:53:10.032Z,51.04
2018-12-27T23:02:51.051Z,51.22
2018-12-27T23:12:53.333Z,50.98
2018-12-27T23:17:10.901Z,50.80
2018-12-27T23:21:37.017Z,51.07
2018-12-27T23:25:57.642Z,51.12
2018-12-27T23:30:22.749Z,51.10
2018-12-27T23:34:40.465Z,51.25
2018-12-27T23:39:26.300Z,51.13
2018-12-27T23:43:50.529Z,51.42
2018-12-27T23:48:08.777Z,51.15
2018-12-27T23:52:26.400Z,51.40
2018-12-27T23:56:52.550Z,51.34
